Time;durP1;ratioP1;P1;durP2;ratioP2;P2;SDS_P1;SDS_P2;PMS_P1;PMS_P2;Temp;Humidity;BMP_temperature;BMP_pressure;BME280_temperature;BME280_humidity;BME280_pressure;Samples;Min_cycle;Max_cycle;Signal;HPM_P1;HPM_P2
2020/12/24 00:02:23;;;;;;;35.53;16.73;;;;;;;7.82;100.00;99623.38;5000956;28;20796;-74
2020/12/24 00:04:49;;;;;;;33.15;16.17;;;;;;;7.89;100.00;99620.53;4984147;28;20519;-74
2020/12/24 00:07:15;;;;;;;27.85;14.52;;;;;;;7.83;100.00;99619.84;4999922;28;20088;-75
2020/12/24 00:09:44;;;;;;;37.72;17.77;;;;;;;7.87;100.00;99619.72;4995666;28;20041;-75
2020/12/24 00:12:14;;;;;;;45.03;20.75;;;;;;;8.00;100.00;99622.03;4999887;28;20049;-74
2020/12/24 00:14:40;;;;;;;43.67;18.75;;;;;;;8.05;100.00;99622.75;5019142;28;20038;-74
2020/12/24 00:17:06;;;;;;;33.03;16.92;;;;;;;8.02;100.00;99630.75;5002510;28;20084;-74
2020/12/24 00:19:33;;;;;;;32.65;14.77;;;;;;;8.02;100.00;99617.59;5001929;28;20052;-75
2020/12/24 00:21:59;;;;;;;50.95;20.15;;;;;;;8.09;100.00;99616.53;5001883;28;20075;-74
2020/12/24 00:24:25;;;;;;;39.40;18.92;;;;;;;8.18;100.00;99619.75;5004014;28;20073;-75
2020/12/24 00:26:51;;;;;;;32.22;15.75;;;;;;;8.18;100.00;99627.66;4983506;28;20030;-75
2020/12/24 00:29:18;;;;;;;43.83;20.35;;;;;;;8.25;100.00;99615.19;4998891;28;20046;-75
2020/12/24 00:31:44;;;;;;;35.85;18.92;;;;;;;8.31;100.00;99620.28;5004144;28;20557;-75
2020/12/24 00:34:14;;;;;;;36.47;17.77;;;;;;;8.31;100.00;99619.41;5002208;28;20530;-74
2020/12/24 00:36:40;;;;;;;30.42;16.80;;;;;;;8.35;100.00;99621.97;4969867;28;20124;-75
2020/12/24 00:39:07;;;;;;;43.78;18.70;;;;;;;8.40;100.00;99625.31;4999573;28;20399;-75
2020/12/24 00:41:33;;;;;;;35.70;16.90;;;;;;;8.43;100.00;99627.88;5001450;28;20049;-74
2020/12/24 00:43:59;;;;;;;36.85;18.65;;;;;;;8.43;100.00;99627.88;5001353;28;20033;-74
2020/12/24 00:46:26;;;;;;;37.17;17.05;;;;;;;8.46;100.00;99634.81;4985924;28;20069;-74
2020/12/24 00:48:52;;;;;;;37.17;16.48;;;;;;;8.48;100.00;99619.81;4973028;28;20057;-75
2020/12/24 00:51:18;;;;;;;36.95;16.88;;;;;;;8.50;100.00;99620.69;4999277;28;20104;-74
2020/12/24 00:53:44;;;;;;;36.15;17.45;;;;;;;8.48;100.00;99629.50;5003992;28;20049;-74
2020/12/24 00:56:10;;;;;;;37.08;17.60;;;;;;;8.50;100.00;99631.19;5000203;28;20035;-74
2020/12/24 00:58:37;;;;;;;32.65;16.75;;;;;;;8.51;100.00;99629.44;5001066;28;20046;-74
2020/12/24 01:01:04;;;;;;;28.08;15.07;;;;;;;8.51;100.00;99626.78;5002956;28;20030;-75
2020/12/24 01:03:30;;;;;;;26.58;15.38;;;;;;;8.56;100.00;99624.88;5005286;28;20042;-74
2020/12/24 01:05:56;;;;;;;33.90;16.02;;;;;;;8.55;100.00;99631.06;5006280;28;20049;-75
2020/12/24 01:08:23;;;;;;;28.38;14.90;;;;;;;8.54;100.00;99617.03;5005430;28;20069;-75
2020/12/24 01:10:49;;;;;;;32.95;17.23;;;;;;;8.61;100.00;99620.34;5005179;28;20503;-75
2020/12/24 01:13:15;;;;;;;35.00;16.63;;;;;;;8.58;100.00;99618.69;5008637;28;20479;-75
2020/12/24 01:15:41;;;;;;;32.60;17.20;;;;;;;8.61;100.00;99626.47;4989650;28;20042;-75
2020/12/24 01:18:07;;;;;;;33.92;17.05;;;;;;;8.66;100.00;99614.06;5004780;28;20049;-75
2020/12/24 01:20:34;;;;;;;28.27;15.48;;;;;;;8.69;100.00;99627.13;5007671;28;20491;-75
2020/12/24 01:23:00;;;;;;;29.33;15.93;;;;;;;8.70;100.00;99618.31;5007196;28;20038;-74
2020/12/24 01:25:26;;;;;;;24.90;15.07;;;;;;;8.69;100.00;99621.84;4973674;28;20042;-75
2020/12/24 01:27:53;;;;;;;28.15;15.32;;;;;;;8.63;100.00;99623.78;5006041;28;20482;-75
2020/12/24 01:30:19;;;;;;;32.40;16.35;;;;;;;8.67;100.00;99623.69;4992400;28;20515;-75
2020/12/24 01:32:45;;;;;;;26.58;14.27;;;;;;;8.65;100.00;99620.19;4986223;28;20095;-74
2020/12/24 01:35:11;;;;;;;27.13;14.95;;;;;;;8.65;100.00;99624.59;5005429;28;20042;-75
2020/12/24 01:37:37;;;;;;;23.67;13.70;;;;;;;8.71;100.00;99614.75;5023363;28;20037;-74
2020/12/24 01:40:04;;;;;;;28.13;14.77;;;;;;;8.69;100.00;99610.47;5003272;28;20096;-73
2020/12/24 01:42:30;;;;;;;24.13;14.63;;;;;;;8.71;100.00;99612.13;5006875;28;20030;-75
2020/12/24 01:44:56;;;;;;;22.75;12.98;;;;;;;8.72;100.00;99598.06;4987881;28;20053;-75
2020/12/24 01:47:23;;;;;;;23.80;12.65;;;;;;;8.75;100.00;99597.13;5019881;28;20045;-75
2020/12/24 01:49:49;;;;;;;19.70;12.00;;;;;;;8.71;100.00;99593.69;4988129;28;20041;-75
2020/12/24 01:52:31;;;;;;;22.98;12.38;;;;;;;8.68;100.00;99593.81;4988681;28;20046;-74
2020/12/24 01:54:58;;;;;;;21.13;11.50;;;;;;;8.62;100.00;99586.06;5004662;28;20038;-74
2020/12/24 01:57:24;;;;;;;21.25;11.77;;;;;;;8.68;100.00;99595.56;5002998;28;20045;-74
2020/12/24 01:59:50;;;;;;;22.58;11.30;;;;;;;8.71;100.00;99569.16;5002372;28;20065;-74
2020/12/24 02:02:16;;;;;;;16.92;10.75;;;;;;;8.71;100.00;99572.63;5004075;28;20042;-75
2020/12/24 02:04:42;;;;;;;17.25;10.20;;;;;;;8.77;100.00;99576.88;5004098;28;20042;-74
2020/12/24 02:07:08;;;;;;;17.02;9.27;;;;;;;8.71;100.00;99564.72;4987596;28;20747;-75
2020/12/24 02:09:35;;;;;;;14.55;9.77;;;;;;;8.68;100.00;99564.84;5004318;28;20049;-74
2020/12/24 02:12:02;;;;;;;15.95;9.77;;;;;;;8.72;100.00;99555.91;5004489;28;20042;-74
2020/12/24 02:14:28;;;;;;;17.35;9.90;;;;;;;8.73;100.00;99541.84;5019079;28;20104;-74
2020/12/24 02:16:54;;;;;;;14.60;8.90;;;;;;;8.83;100.00;99538.91;4986873;28;20092;-74
2020/12/24 02:19:33;;;;;;;15.70;9.00;;;;;;;8.76;100.00;99533.00;5000576;28;20045;-75
2020/12/24 02:22:00;;;;;;;14.00;8.75;;;;;;;8.76;100.00;99533.00;5001475;28;20034;-75
2020/12/24 02:24:27;;;;;;;14.13;8.65;;;;;;;8.73;100.00;99528.69;4987558;28;20721;-75
2020/12/24 02:26:53;;;;;;;12.68;8.30;;;;;;;8.74;100.00;99519.91;4971686;28;20046;-74
2020/12/24 02:29:19;;;;;;;13.18;7.93;;;;;;;8.72;100.00;99523.47;5003273;28;20581;-74
2020/12/24 02:31:45;;;;;;;12.70;8.30;;;;;;;8.71;100.00;99524.38;4971023;28;20042;-74
2020/12/24 02:34:11;;;;;;;13.05;9.00;;;;;;;8.66;100.00;99516.63;5003502;28;20100;-75
2020/12/24 02:36:37;;;;;;;14.23;8.27;;;;;;;8.64;100.00;99523.69;4985710;28;20081;-74
2020/12/24 02:39:04;;;;;;;12.52;8.27;;;;;;;8.63;100.00;99521.13;5002121;28;20064;-75
2020/12/24 02:41:30;;;;;;;14.00;8.88;;;;;;;8.64;100.00;99512.31;5003392;28;20074;-74
2020/12/24 02:43:56;;;;;;;12.02;7.20;;;;;;;8.57;100.00;99511.63;5001555;28;20048;-74
2020/12/24 02:46:22;;;;;;;11.32;8.13;;;;;;;8.55;100.00;99513.44;4986715;28;20484;-73
2020/12/24 02:48:48;;;;;;;10.18;6.93;;;;;;;8.61;100.00;99517.69;5003314;28;20116;-75
2020/12/24 02:51:17;;;;;;;11.50;7.75;;;;;;;8.61;100.00;99508.00;5003582;28;20046;-75
2020/12/24 02:53:43;;;;;;;11.07;7.38;;;;;;;8.65;100.00;99503.50;5003092;28;20045;-75
2020/12/24 02:56:09;;;;;;;9.73;6.18;;;;;;;8.60;100.00;99500.16;5002313;28;20046;-73
2020/12/24 02:58:36;;;;;;;11.18;7.35;;;;;;;8.56;100.00;99493.25;4996673;28;20041;-73
2020/12/24 03:01:02;;;;;;;11.45;7.40;;;;;;;8.53;100.00;99491.59;5001712;28;20046;-73
2020/12/24 03:03:28;;;;;;;10.32;6.93;;;;;;;8.54;100.00;99485.41;5003156;28;20132;-73
2020/12/24 03:05:54;;;;;;;11.98;7.43;;;;;;;8.51;100.00;99488.16;5002538;28;20057;-73
2020/12/24 03:08:20;;;;;;;13.27;7.28;;;;;;;8.54;100.00;99495.06;5001922;28;20076;-73
2020/12/24 03:10:47;;;;;;;9.07;6.75;;;;;;;8.55;100.00;99487.13;5000902;28;20731;-73
2020/12/24 03:13:13;;;;;;;9.20;6.70;;;;;;;8.54;100.00;99502.97;5003478;28;20050;-73
2020/12/24 03:15:39;;;;;;;10.55;6.40;;;;;;;8.54;100.00;99493.31;5002454;28;20116;-73
2020/12/24 03:18:05;;;;;;;8.85;6.53;;;;;;;8.54;100.00;99495.94;5001912;28;20065;-74
2020/12/24 03:20:32;;;;;;;9.63;5.95;;;;;;;8.55;100.00;99495.03;4985300;28;20070;-73
2020/12/24 03:22:58;;;;;;;9.00;6.10;;;;;;;8.49;100.00;99491.72;5002220;28;20141;-73
2020/12/24 03:25:24;;;;;;;8.52;5.40;;;;;;;8.46;100.00;99487.41;4985699;28;20045;-73
2020/12/24 03:27:50;;;;;;;8.02;5.80;;;;;;;8.42;100.00;99489.28;4999255;28;20116;-73
2020/12/24 03:30:16;;;;;;;8.25;6.05;;;;;;;8.41;100.00;99486.72;5001313;28;20065;-73
2020/12/24 03:32:43;;;;;;;7.88;5.53;;;;;;;8.42;100.00;99485.78;5000137;28;20041;-73
2020/12/24 03:35:09;;;;;;;8.23;5.75;;;;;;;8.40;100.00;99477.91;4995765;28;20065;-73
2020/12/24 03:37:35;;;;;;;7.47;5.13;;;;;;;8.40;100.00;99472.66;4984217;28;20088;-73
2020/12/24 03:40:02;;;;;;;7.35;4.82;;;;;;;8.37;100.00;99471.91;5000400;28;20073;-73
2020/12/24 03:42:28;;;;;;;6.65;4.82;;;;;;;8.39;100.00;99476.19;5001989;28;20038;-74
2020/12/24 03:44:54;;;;;;;6.35;4.43;;;;;;;8.34;100.00;99467.56;4999434;28;20042;-73
2020/12/24 03:47:20;;;;;;;6.93;4.43;;;;;;;8.28;100.00;99466.88;5003321;28;20749;-73
2020/12/24 03:49:46;;;;;;;7.97;4.30;;;;;;;8.27;100.00;99460.75;5007316;28;20046;-73
2020/12/24 03:52:13;;;;;;;6.80;4.47;;;;;;;8.25;100.00;99452.06;5002283;28;20056;-73
2020/12/24 03:54:39;;;;;;;6.18;4.40;;;;;;;8.22;100.00;99449.50;5000794;28;20523;-73
2020/12/24 03:57:05;;;;;;;5.75;3.80;;;;;;;8.19;100.00;99444.34;5001360;28;20096;-73
2020/12/24 03:59:31;;;;;;;7.00;4.22;;;;;;;8.24;100.00;99449.44;5001635;28;20038;-74
2020/12/24 04:01:57;;;;;;;7.18;3.92;;;;;;;8.20;100.00;99448.69;5001092;28;20133;-73
2020/12/24 04:04:23;;;;;;;4.70;3.75;;;;;;;8.21;100.00;99446.94;5002249;28;20045;-73
2020/12/24 04:06:50;;;;;;;4.53;3.85;;;;;;;8.23;100.00;99439.84;4986718;28;20041;-73
2020/12/24 04:09:16;;;;;;;4.32;3.25;;;;;;;8.21;100.00;99432.00;5001150;28;20571;-73
2020/12/24 04:11:42;;;;;;;5.03;3.63;;;;;;;8.15;100.00;99419.03;5000461;28;20037;-73
2020/12/24 04:14:08;;;;;;;4.32;3.35;;;;;;;8.13;100.00;99431.38;5002052;28;20042;-73
2020/12/24 04:16:34;;;;;;;5.05;3.08;;;;;;;8.10;100.00;99418.31;4986034;28;20093;-73
2020/12/24 04:19:00;;;;;;;6.10;3.65;;;;;;;8.08;100.00;99418.38;5002763;28;20702;-73
2020/12/24 04:21:26;;;;;;;5.35;3.50;;;;;;;8.10;100.00;99421.81;4988593;28;20132;-73
2020/12/24 04:23:53;;;;;;;4.53;3.47;;;;;;;8.07;100.00;99418.41;5001805;28;20820;-75
2020/12/24 04:26:20;;;;;;;6.30;3.05;;;;;;;8.03;100.00;99414.16;5001265;28;20046;-75
2020/12/24 04:28:46;;;;;;;4.78;3.05;;;;;;;8.00;100.00;99406.38;5003304;28;20461;-74
2020/12/24 04:31:13;;;;;;;4.22;3.63;;;;;;;8.06;100.00;99414.91;4987258;28;20566;-74
2020/12/24 04:33:39;;;;;;;4.07;3.00;;;;;;;8.05;100.00;99418.44;5002348;28;20765;-74
2020/12/24 04:36:06;;;;;;;4.20;2.90;;;;;;;8.03;100.00;99414.16;5001806;28;20044;-77
2020/12/24 04:38:34;;;;;;;4.70;2.85;;;;;;;8.02;100.00;99412.44;5001657;28;20042;-74
2020/12/24 04:41:01;;;;;;;3.50;2.80;;;;;;;8.07;100.00;99411.41;4986062;28;20299;-78
2020/12/24 04:43:28;;;;;;;3.10;2.65;;;;;;;8.10;100.00;99408.66;5005357;28;20073;-75
2020/12/24 04:45:55;;;;;;;5.88;3.15;;;;;;;8.04;100.00;99413.25;5003107;28;20038;-74
2020/12/24 04:48:22;;;;;;;4.28;2.63;;;;;;;8.10;100.00;99411.28;4987007;28;20062;-75
2020/12/24 04:50:49;;;;;;;10.15;2.58;;;;;;;8.09;100.00;99408.72;5001445;28;20066;-74
2020/12/24 04:53:17;;;;;;;3.50;2.70;;;;;;;8.11;100.00;99401.63;5003985;28;20062;-78
2020/12/24 04:55:44;;;;;;;4.03;2.50;;;;;;;8.13;100.00;99410.31;4986241;28;20108;-75
2020/12/24 04:58:10;;;;;;;4.60;2.60;;;;;;;8.12;100.00;99405.97;4997602;28;20732;-78
2020/12/24 05:00:39;;;;;;;4.45;2.17;;;;;;;8.17;100.00;99401.44;5003076;28;20054;-77
2020/12/24 05:03:10;;;;;;;5.15;2.67;;;;;;;8.14;100.00;99396.25;5002970;28;20046;-77
2020/12/24 05:05:37;;;;;;;3.03;2.30;;;;;;;8.15;100.00;99395.34;5004163;28;20050;-74
2020/12/24 05:08:05;;;;;;;3.15;2.75;;;;;;;8.16;100.00;99394.47;5003824;28;20065;-76
2020/12/24 05:10:33;;;;;;;6.40;2.90;;;;;;;8.17;100.00;99391.78;5009509;28;20038;-77
2020/12/24 05:12:59;;;;;;;4.03;2.47;;;;;;;8.15;100.00;99395.34;5001613;28;20142;-75
2020/12/24 05:15:30;;;;;;;5.00;3.60;;;;;;;8.20;100.00;99396.09;4986550;28;20030;-75
2020/12/24 05:18:19;;;;;;;3.75;2.63;;;;;;;8.22;100.00;99393.41;5005382;28;20034;-75
2020/12/24 05:20:46;;;;;;;5.10;2.70;;;;;;;8.24;100.00;99389.84;5004053;28;20034;-75
2020/12/24 05:23:17;;;;;;;8.15;3.30;;;;;;;8.23;100.00;99392.47;5007367;28;20050;-74
2020/12/24 05:25:44;;;;;;;5.15;3.70;;;;;;;8.25;100.00;99402.06;5002895;28;20046;-74
2020/12/24 05:28:31;;;;;;;4.80;2.75;;;;;;;8.22;100.00;99396.03;5004734;28;20153;-77
2020/12/24 05:30:57;;;;;;;6.20;3.20;;;;;;;8.25;100.00;99401.22;4987513;28;20042;-75
2020/12/24 05:33:31;;;;;;;5.15;2.67;;;;;;;8.28;100.00;99398.47;5003893;28;20511;-75
2020/12/24 05:36:22;;;;;;;3.53;3.10;;;;;;;8.26;100.00;99395.91;5002848;28;20104;-76
2020/12/24 05:38:50;;;;;;;7.18;2.60;;;;;;;8.23;100.00;99395.13;5002370;28;20072;-77
2020/12/24 05:41:35;;;;;;;3.92;2.70;;;;;;;8.16;100.00;99384.81;4971255;28;20044;-76
2020/12/24 05:44:04;;;;;;;4.13;2.42;;;;;;;8.18;100.00;99392.66;5000299;28;20088;-76
2020/12/24 05:46:47;;;;;;;4.53;3.08;;;;;;;8.14;100.00;99401.53;4986795;28;20583;-74
2020/12/24 05:49:18;;;;;;;3.40;2.75;;;;;;;8.11;100.00;99399.00;4999855;28;20084;-75
2020/12/24 05:52:02;;;;;;;5.10;4.03;;;;;;;8.13;100.00;99400.66;5007152;28;20042;-74
2020/12/24 05:54:30;;;;;;;4.30;2.85;;;;;;;8.12;100.00;99406.84;5004803;28;20042;-76
2020/12/24 05:56:57;;;;;;;5.78;2.95;;;;;;;8.22;100.00;99424.97;5008535;28;20065;-75
2020/12/24 05:59:24;;;;;;;6.15;4.03;;;;;;;8.22;100.00;99411.81;4991374;28;20128;-74
2020/12/24 06:02:18;;;;;;;6.63;3.85;;;;;;;8.16;100.00;99418.16;5008703;28;20038;-75
2020/12/24 06:04:44;;;;;;;5.47;4.25;;;;;;;8.10;100.00;99418.31;5007151;28;20034;-76
2020/12/24 06:07:14;;;;;;;5.97;3.38;;;;;;;8.06;100.00;99419.31;5002099;28;20038;-75
2020/12/24 06:09:42;;;;;;;3.65;3.17;;;;;;;8.05;100.00;99423.72;5007102;28;20679;-77
2020/12/24 06:12:17;;;;;;;4.53;3.08;;;;;;;7.97;100.00;99422.22;4990453;28;20116;-76
2020/12/24 06:14:47;;;;;;;4.53;2.90;;;;;;;7.96;100.00;99420.50;5010433;28;20558;-75
2020/12/24 06:17:15;;;;;;;10.18;3.75;;;;;;;7.89;100.00;99444.34;5004263;28;20046;-76
2020/12/24 06:19:41;;;;;;;6.35;3.42;;;;;;;7.86;100.00;99446.19;5005211;28;20033;-75
2020/12/24 06:22:13;;;;;;;4.07;3.22;;;;;;;7.82;100.00;99439.31;5006610;28;20041;-74
2020/12/24 06:24:41;;;;;;;4.15;3.13;;;;;;;7.79;100.00;99448.13;5006818;28;20069;-77
2020/12/24 06:27:15;;;;;;;6.05;3.30;;;;;;;7.74;100.00;99434.28;5006634;28;20084;-75
2020/12/24 06:29:43;;;;;;;;;;;;;;;7.73;100.00;99440.41;5006994;28;20034;-75
2020/12/24 06:32:11;;;;;;;5.18;3.50;;;;;;;7.72;100.00;99448.34;5005173;28;19976;-75
2020/12/24 06:34:39;;;;;;;10.65;3.40;;;;;;;7.71;100.00;99444.88;5006508;28;20045;-74
2020/12/24 06:37:14;;;;;;;5.80;3.20;;;;;;;7.69;100.00;99454.56;5007263;28;20148;-75
2020/12/24 06:39:45;;;;;;;4.53;3.17;;;;;;;7.66;100.00;99462.56;5006822;28;20061;-75
2020/12/24 06:42:40;;;;;;;4.05;3.40;;;;;;;7.61;100.00;99456.56;5006761;28;20046;-75
2020/12/24 06:45:18;;;;;;;4.00;3.05;;;;;;;7.61;100.00;99459.19;5003703;28;20116;-77
2020/12/24 06:48:10;;;;;;;6.10;3.50;;;;;;;7.60;100.00;99458.31;5006874;28;20041;-77
2020/12/24 06:50:40;;;;;;;7.20;3.17;;;;;;;7.55;100.00;99454.94;5005318;28;20065;-75
2020/12/24 06:53:39;;;;;;;8.37;3.40;;;;;;;7.43;100.00;99463.16;5002443;28;20046;-76
2020/12/24 06:56:19;;;;;;;6.30;4.25;;;;;;;7.41;100.00;99466.75;4953693;28;20045;-74
2020/12/24 06:58:54;;;;;;;6.50;4.80;;;;;;;7.36;100.00;99472.13;5001878;28;20506;-75
2020/12/24 07:01:31;;;;;;;8.00;5.07;;;;;;;7.37;100.00;99468.56;4984832;28;20092;-74
2020/12/24 07:03:59;;;;;;;6.20;4.00;;;;;;;7.37;100.00;99465.09;5004179;28;20049;-74
2020/12/24 07:06:41;;;;;;;5.20;4.13;;;;;;;7.36;100.00;99458.13;4985547;28;20045;-75
2020/12/24 07:09:11;;;;;;;6.43;3.80;;;;;;;7.30;100.00;99456.50;5005482;28;20606;-75
2020/12/24 07:11:52;;;;;;;4.97;3.37;;;;;;;7.26;100.00;99462.75;5002565;28;20407;-75
2020/12/24 07:14:29;;;;;;;8.25;3.30;;;;;;;7.27;100.00;99457.47;5005629;28;20046;-75
2020/12/24 07:16:57;;;;;;;5.72;3.17;;;;;;;7.28;100.00;99461.81;5005905;28;20065;-76
2020/12/24 07:19:24;;;;;;;6.07;3.42;;;;;;;7.22;100.00;99458.47;4985930;28;20046;-75
2020/12/24 07:21:51;;;;;;;6.00;2.78;;;;;;;7.21;100.00;99460.22;5001645;28;20037;-75
2020/12/24 07:24:28;;;;;;;6.50;2.47;;;;;;;7.27;100.00;99454.81;5002274;28;20124;-76
2020/12/24 07:26:56;;;;;;;5.55;2.95;;;;;;;7.26;100.00;99455.72;5002520;28;20372;-75
2020/12/24 07:29:24;;;;;;;3.53;2.10;;;;;;;7.26;100.00;99458.38;5006015;28;20439;-77
2020/12/24 07:31:51;;;;;;;4.15;2.60;;;;;;;7.25;100.00;99471.53;4986721;28;20132;-77
2020/12/24 07:34:27;;;;;;;5.15;2.83;;;;;;;7.20;100.00;99474.28;5005346;28;20491;-75
2020/12/24 07:36:53;;;;;;;4.45;2.20;;;;;;;7.22;100.00;99469.84;5004669;28;20041;-77
2020/12/24 07:39:20;;;;;;;5.17;2.50;;;;;;;7.26;99.13;99476.75;4988531;28;20431;-77
2020/12/24 07:41:46;;;;;;;4.50;2.20;;;;;;;7.28;98.89;99474.94;5003173;28;20511;-75
2020/12/24 07:44:14;;;;;;;5.55;2.70;;;;;;;7.26;99.68;99494.28;5003530;28;20038;-75
2020/12/24 07:46:40;;;;;;;5.43;1.95;;;;;;;7.26;98.41;99476.75;5003763;28;20162;-76
2020/12/24 07:49:06;;;;;;;6.27;2.10;;;;;;;7.27;98.86;99485.50;5005653;28;20606;-75
2020/12/24 07:51:33;;;;;;;3.77;2.10;;;;;;;7.18;99.60;99483.97;5004802;28;20042;-75
2020/12/24 07:54:12;;;;;;;5.17;2.20;;;;;;;7.04;100.00;99492.19;5002511;28;20038;-77
2020/12/24 07:56:46;;;;;;;6.00;3.43;;;;;;;6.93;100.00;99485.47;5005802;28;20077;-75
2020/12/24 07:59:13;;;;;;;2.97;2.50;;;;;;;6.82;100.00;99488.38;5006085;28;20492;-75
2020/12/24 08:01:39;;;;;;;4.53;2.00;;;;;;;6.73;100.00;99494.69;4989698;28;20344;-77
2020/12/24 08:04:05;;;;;;;5.80;2.40;;;;;;;6.64;100.00;99497.53;4988733;28;20081;-75
2020/12/24 08:06:33;;;;;;;3.87;2.60;;;;;;;6.61;100.00;99494.97;5002676;28;20048;-75
2020/12/24 08:09:14;;;;;;;4.10;2.63;;;;;;;6.57;100.00;99498.56;4985749;28;20030;-75
2020/12/24 08:11:41;;;;;;;5.47;3.80;;;;;;;6.53;100.00;99502.16;5004348;28;20041;-77
2020/12/24 08:14:08;;;;;;;5.27;3.07;;;;;;;6.51;100.00;99488.22;5001698;28;20034;-75
2020/12/24 08:16:37;;;;;;;5.67;3.00;;;;;;;6.49;100.00;99485.63;5000337;28;20054;-75
2020/12/24 08:19:15;;;;;;;5.73;2.27;;;;;;;6.37;100.00;99496.38;4999051;28;20041;-76
2020/12/24 08:22:04;;;;;;;4.07;2.00;;;;;;;6.25;100.00;99493.19;5001024;28;20080;-75
2020/12/24 08:24:31;;;;;;;4.70;2.60;;;;;;;6.23;100.00;99492.34;5001990;28;20083;-77
2020/12/24 08:26:57;;;;;;;5.87;2.97;;;;;;;6.19;100.00;99497.66;5000350;28;20042;-75
2020/12/24 08:29:24;;;;;;;6.83;2.60;;;;;;;6.09;100.00;99498.75;5002253;28;20034;-75
2020/12/24 08:31:51;;;;;;;5.13;2.70;;;;;;;6.11;100.00;99494.31;4986464;28;20511;-77
2020/12/24 08:34:17;;;;;;;4.40;2.80;;;;;;;6.03;100.00;99498.84;5020232;28;20088;-76
2020/12/24 08:36:47;;;;;;;6.67;2.70;;;;;;;6.00;100.00;99493.69;5002650;28;20537;-76
2020/12/24 08:39:15;;;;;;;5.37;2.87;;;;;;;5.98;100.00;99503.34;5003944;28;20034;-76
2020/12/24 08:41:44;;;;;;;5.07;2.90;;;;;;;5.93;100.00;99507.81;4990960;28;20099;-75
2020/12/24 08:44:15;;;;;;;5.47;2.73;;;;;;;5.91;100.00;99496.50;5004214;28;20081;-75
2020/12/24 08:46:42;;;;;;;6.23;3.30;;;;;;;5.86;100.00;99487.81;5002455;28;20042;-76
2020/12/24 08:49:23;;;;;;;5.67;3.00;;;;;;;5.82;100.00;99494.03;4987062;28;20034;-76
2020/12/24 08:51:50;;;;;;;7.93;3.40;;;;;;;5.78;100.00;99487.97;5004047;28;20048;-76
2020/12/24 08:54:20;;;;;;;8.33;3.20;;;;;;;5.80;100.00;99485.31;5007046;28;20613;-76
2020/12/24 08:56:47;;;;;;;6.70;3.00;;;;;;;5.80;100.00;99487.94;5002296;28;20065;-76
2020/12/24 08:59:13;;;;;;;5.70;3.37;;;;;;;5.77;100.00;99488.00;5003118;28;20038;-77
2020/12/24 09:01:43;;;;;;;5.93;3.10;;;;;;;5.76;100.00;99494.16;4987314;28;20057;-75
2020/12/24 09:04:15;;;;;;;7.33;3.17;;;;;;;5.70;100.00;99483.78;4986997;28;20045;-76
2020/12/24 09:06:41;;;;;;;4.93;2.80;;;;;;;5.69;100.00;99485.53;4984854;28;20077;-77
2020/12/24 09:09:08;;;;;;;5.10;3.20;;;;;;;5.67;100.00;99476.84;5002459;28;20034;-75
2020/12/24 09:11:34;;;;;;;4.70;2.77;;;;;;;5.65;100.00;99484.75;5005447;28;21354;-75
2020/12/24 09:14:02;;;;;;;5.03;2.67;;;;;;;5.63;100.00;99489.16;5004680;28;20542;-75
2020/12/24 09:16:31;;;;;;;4.87;2.97;;;;;;;5.65;100.00;99474.25;5000550;28;20125;-77
2020/12/24 09:19:05;;;;;;;6.47;3.87;;;;;;;5.61;100.00;99483.06;5003098;28;20038;-77
2020/12/24 09:21:36;;;;;;;6.77;3.50;;;;;;;5.62;100.00;99476.91;4964226;28;20618;-77
2020/12/24 09:24:10;;;;;;;3.63;3.33;;;;;;;5.63;100.00;99475.16;5000767;28;20053;-77
2020/12/24 09:26:46;;;;;;;4.90;2.70;;;;;;;5.68;100.00;99481.19;4990056;28;20100;-76
2020/12/24 09:29:13;;;;;;;5.60;2.70;;;;;;;5.66;100.00;99485.59;5007992;28;20034;-76
2020/12/24 09:31:39;;;;;;;3.63;2.40;;;;;;;5.66;100.00;99482.97;5007075;28;20467;-77
2020/12/24 09:34:07;;;;;;;5.37;2.50;;;;;;;5.68;100.00;99490.81;5007806;28;20076;-77
2020/12/24 09:36:33;;;;;;;4.87;2.97;;;;;;;5.75;100.00;99489.81;5005366;28;20092;-76
2020/12/24 09:38:59;;;;;;;6.87;2.93;;;;;;;5.70;100.00;99489.00;4989367;28;20415;-76
2020/12/24 09:41:25;;;;;;;6.13;3.27;;;;;;;5.63;100.00;99494.41;5002244;28;20097;-76
2020/12/24 09:43:51;;;;;;;4.67;2.90;;;;;;;5.60;100.00;99490.94;5004228;28;20537;-77
2020/12/24 09:46:17;;;;;;;2.93;2.17;;;;;;;5.69;100.00;99485.53;5006523;28;20192;-77
2020/12/24 09:48:43;;;;;;;3.57;2.10;;;;;;;5.61;100.00;99488.28;4989798;28;20452;-77
2020/12/24 09:51:09;;;;;;;3.00;2.50;;;;;;;5.57;100.00;99491.03;5009366;28;20038;-77
2020/12/24 09:53:36;;;;;;;5.30;2.67;;;;;;;5.56;100.00;99489.28;5007236;28;20050;-77
2020/12/24 09:56:02;;;;;;;4.00;2.73;;;;;;;5.60;100.00;99485.72;4986932;28;20129;-75
2020/12/24 09:58:28;;;;;;;3.30;2.50;;;;;;;5.59;100.00;99489.22;5009274;28;20049;-75
2020/12/24 10:00:55;;;;;;;3.73;2.30;;;;;;;5.59;100.00;99484.84;4990780;28;20117;-75
2020/12/24 10:03:25;;;;;;;5.10;3.30;;;;;;;5.56;100.00;99484.06;5003509;28;20045;-76
2020/12/24 10:05:52;;;;;;;5.03;2.50;;;;;;;5.61;100.00;99490.91;4970128;28;20066;-76
2020/12/24 10:08:18;;;;;;;3.43;2.07;;;;;;;5.61;100.00;99487.44;4987105;28;20049;-76
2020/12/24 10:10:44;;;;;;;3.57;1.93;;;;;;;5.60;100.00;99486.56;4989163;28;20104;-75
2020/12/24 10:13:11;;;;;;;3.43;2.10;;;;;;;5.59;100.00;99487.47;5006301;28;20092;-75
2020/12/24 10:15:37;;;;;;;3.80;1.87;;;;;;;5.61;100.00;99484.81;4975349;28;20046;-75
2020/12/24 10:18:03;;;;;;;2.93;2.17;;;;;;;5.63;100.00;99477.78;5004444;28;20038;-75
2020/12/24 10:20:29;;;;;;;2.87;2.30;;;;;;;5.59;100.00;99476.13;5019071;28;20041;-75
2020/12/24 10:22:56;;;;;;;3.93;2.00;;;;;;;5.58;100.00;99482.25;5008074;28;20066;-74
2020/12/24 10:25:22;;;;;;;3.97;2.50;;;;;;;5.55;100.00;99485.81;5009878;28;20037;-75
2020/12/24 10:27:48;;;;;;;3.37;2.37;;;;;;;5.61;100.00;99487.44;4991613;28;20034;-77
2020/12/24 10:30:14;;;;;;;12.43;9.20;;;;;;;5.55;100.00;99488.44;5001102;28;20502;-76
2020/12/24 10:32:40;;;;;;;6.60;5.80;;;;;;;5.57;100.00;99483.16;5003022;28;20038;-75
2020/12/24 10:35:06;;;;;;;7.73;4.80;;;;;;;5.55;100.00;99487.53;5005751;28;20050;-77
2020/12/24 10:37:33;;;;;;;4.07;2.47;;;;;;;5.48;100.00;99486.81;4988843;28;20064;-76
2020/12/24 10:39:59;;;;;;;1.77;1.30;;;;;;;5.39;100.00;99497.47;5006063;28;20033;-76
2020/12/24 10:42:25;;;;;;;1.60;1.27;;;;;;;5.33;100.00;99501.06;5006079;28;20038;-75
2020/12/24 10:44:51;;;;;;;2.07;1.40;;;;;;;5.26;100.00;99491.56;4983419;28;20393;-75
2020/12/24 10:47:17;;;;;;;1.90;1.33;;;;;;;5.16;100.00;99507.47;4999405;28;20065;-75
2020/12/24 10:49:45;;;;;;;2.13;1.13;;;;;;;5.12;100.00;99513.63;5006532;28;20380;-75
2020/12/24 10:52:14;;;;;;;2.43;1.10;;;;;;;5.05;100.00;99511.13;5009075;28;20407;-75
2020/12/24 10:54:40;;;;;;;3.03;1.37;;;;;;;4.95;100.00;99521.75;5012149;28;20072;-74
2020/12/24 10:57:06;;;;;;;10.23;3.10;;;;;;;4.86;100.00;99528.00;5002488;28;20042;-74
2020/12/24 10:59:32;;;;;;;11.93;4.20;;;;;;;4.69;100.00;99535.25;5005335;28;20585;-74
2020/12/24 11:01:59;;;;;;;14.53;6.07;;;;;;;4.60;100.00;99536.25;5008631;28;20136;-77
2020/12/24 11:04:26;;;;;;;4.33;2.33;;;;;;;4.60;100.00;99530.16;5005750;28;20045;-74
2020/12/24 11:06:52;;;;;;;6.30;3.30;;;;;;;4.56;100.00;99529.34;5006248;28;20037;-75
2020/12/24 11:09:18;;;;;;;2.97;1.87;;;;;;;4.51;100.00;99525.91;5010320;28;20037;-74
2020/12/24 11:11:44;;;;;;;2.67;1.33;;;;;;;4.42;100.00;99526.91;5004410;28;20124;-75
2020/12/24 11:14:10;;;;;;;1.50;0.70;;;;;;;4.22;100.00;99539.41;5009362;28;20046;-75
2020/12/24 11:16:37;;;;;;;1.90;1.20;;;;;;;4.17;100.00;99536.81;5006347;28;20052;-74
2020/12/24 11:19:03;;;;;;;1.23;0.40;;;;;;;3.96;100.00;99542.31;4999907;28;20034;-74
2020/12/24 11:21:34;;;;;;;1.23;0.57;;;;;;;3.80;100.00;99548.59;5006069;28;20038;-75
2020/12/24 11:24:05;;;;;;;1.70;0.40;;;;;;;3.73;100.00;99549.53;4999736;28;20034;-76
2020/12/24 11:26:33;;;;;;;0.43;0.40;;;;;;;3.73;100.00;99550.41;5006827;28;20042;-76
2020/12/24 11:28:59;;;;;;;0.50;0.40;;;;;;;3.73;100.00;99553.03;5006598;28;20080;-77
2020/12/24 11:31:31;;;;;;;0.67;0.30;;;;;;;3.75;100.00;99559.09;5002996;28;20057;-75
2020/12/24 11:33:57;;;;;;;0.60;0.37;;;;;;;3.71;100.00;99561.75;5004362;28;20092;-74
2020/12/24 11:36:24;;;;;;;0.40;0.30;;;;;;;3.67;100.00;99551.31;5009193;28;20045;-74